sensor_id;sensor_type;location;lat;lon;timestamp;P1;durP1;ratioP1;P2;durP2;ratioP2
21833;SDS011;11079;51.092;3.458;2022-09-09T00:03:53;5.03;;;2.25;;
21833;SDS011;11079;51.092;3.458;2022-09-09T00:06:32;11.20;;;2.78;;
21833;SDS011;11079;51.092;3.458;2022-09-09T00:09:41;6.38;;;2.70;;
21833;SDS011;11079;51.092;3.458;2022-09-09T00:15:14;8.23;;;2.83;;
21833;SDS011;11079;51.092;3.458;2022-09-09T00:23:55;6.15;;;2.53;;
21833;SDS011;11079;51.092;3.458;2022-09-09T00:32:55;7.05;;;2.53;;
21833;SDS011;11079;51.092;3.458;2022-09-09T00:38:36;7.22;;;2.28;;
21833;SDS011;11079;51.092;3.458;2022-09-09T00:43:41;9.00;;;2.95;;
21833;SDS011;11079;51.092;3.458;2022-09-09T00:49:04;6.20;;;2.00;;
21833;SDS011;11079;51.092;3.458;2022-09-09T00:51:47;4.43;;;1.92;;
21833;SDS011;11079;51.092;3.458;2022-09-09T00:54:48;4.30;;;1.63;;
21833;SDS011;11079;51.092;3.458;2022-09-09T00:57:40;3.88;;;1.77;;
21833;SDS011;11079;51.092;3.458;2022-09-09T01:05:46;6.18;;;2.22;;
21833;SDS011;11079;51.092;3.458;2022-09-09T01:11:00;5.30;;;1.50;;
21833;SDS011;11079;51.092;3.458;2022-09-09T01:13:34;7.07;;;1.77;;
21833;SDS011;11079;51.092;3.458;2022-09-09T01:18:46;6.70;;;2.00;;
21833;SDS011;11079;51.092;3.458;2022-09-09T01:23:47;5.07;;;1.90;;
21833;SDS011;11079;51.092;3.458;2022-09-09T01:29:14;5.38;;;1.73;;
21833;SDS011;11079;51.092;3.458;2022-09-09T01:31:42;4.47;;;1.83;;
21833;SDS011;11079;51.092;3.458;2022-09-09T01:34:33;5.13;;;2.08;;
21833;SDS011;11079;51.092;3.458;2022-09-09T01:37:07;3.40;;;1.58;;
21833;SDS011;11079;51.092;3.458;2022-09-09T01:39:39;5.10;;;1.45;;
21833;SDS011;11079;51.092;3.458;2022-09-09T01:42:09;3.35;;;1.48;;
21833;SDS011;11079;51.092;3.458;2022-09-09T01:44:39;5.85;;;1.70;;
21833;SDS011;11079;51.092;3.458;2022-09-09T01:47:05;4.32;;;2.00;;
21833;SDS011;11079;51.092;3.458;2022-09-09T01:49:32;5.25;;;1.45;;
21833;SDS011;11079;51.092;3.458;2022-09-09T01:51:58;3.70;;;1.55;;
21833;SDS011;11079;51.092;3.458;2022-09-09T01:54:25;4.38;;;1.55;;
21833;SDS011;11079;51.092;3.458;2022-09-09T01:57:11;5.97;;;2.38;;
21833;SDS011;11079;51.092;3.458;2022-09-09T02:02:41;5.75;;;1.90;;
21833;SDS011;11079;51.092;3.458;2022-09-09T02:08:53;6.88;;;1.65;;
21833;SDS011;11079;51.092;3.458;2022-09-09T02:11:22;5.35;;;1.60;;
21833;SDS011;11079;51.092;3.458;2022-09-09T02:13:51;2.60;;;1.70;;
21833;SDS011;11079;51.092;3.458;2022-09-09T02:19:15;4.05;;;1.70;;
21833;SDS011;11079;51.092;3.458;2022-09-09T02:22:00;6.20;;;2.10;;
21833;SDS011;11079;51.092;3.458;2022-09-09T02:24:27;5.50;;;1.80;;
21833;SDS011;11079;51.092;3.458;2022-09-09T02:27:02;7.10;;;2.15;;
21833;SDS011;11079;51.092;3.458;2022-09-09T02:29:33;7.57;;;2.00;;
21833;SDS011;11079;51.092;3.458;2022-09-09T02:32:02;3.97;;;1.67;;
21833;SDS011;11079;51.092;3.458;2022-09-09T02:34:33;9.18;;;1.85;;
21833;SDS011;11079;51.092;3.458;2022-09-09T02:37:04;7.07;;;2.00;;
21833;SDS011;11079;51.092;3.458;2022-09-09T02:39:33;4.85;;;2.08;;
21833;SDS011;11079;51.092;3.458;2022-09-09T02:41:58;6.95;;;1.73;;
21833;SDS011;11079;51.092;3.458;2022-09-09T02:44:24;6.25;;;2.33;;
21833;SDS011;11079;51.092;3.458;2022-09-09T02:57:57;3.97;;;1.80;;
21833;SDS011;11079;51.092;3.458;2022-09-09T03:00:25;6.97;;;1.98;;
21833;SDS011;11079;51.092;3.458;2022-09-09T03:02:53;7.78;;;2.13;;
21833;SDS011;11079;51.092;3.458;2022-09-09T03:05:21;5.60;;;1.42;;
21833;SDS011;11079;51.092;3.458;2022-09-09T03:07:48;8.35;;;2.20;;
21833;SDS011;11079;51.092;3.458;2022-09-09T03:10:15;5.80;;;2.08;;
21833;SDS011;11079;51.092;3.458;2022-09-09T03:12:42;8.77;;;2.38;;
21833;SDS011;11079;51.092;3.458;2022-09-09T03:15:09;8.95;;;2.47;;
21833;SDS011;11079;51.092;3.458;2022-09-09T03:17:36;8.38;;;2.78;;
21833;SDS011;11079;51.092;3.458;2022-09-09T03:20:05;9.80;;;2.10;;
21833;SDS011;11079;51.092;3.458;2022-09-09T03:22:31;11.93;;;2.33;;
21833;SDS011;11079;51.092;3.458;2022-09-09T03:24:57;10.40;;;1.92;;
21833;SDS011;11079;51.092;3.458;2022-09-09T03:27:22;8.48;;;2.45;;
21833;SDS011;11079;51.092;3.458;2022-09-09T03:29:48;8.10;;;2.40;;
21833;SDS011;11079;51.092;3.458;2022-09-09T03:32:16;8.95;;;2.08;;
21833;SDS011;11079;51.092;3.458;2022-09-09T03:34:43;7.65;;;2.30;;
21833;SDS011;11079;51.092;3.458;2022-09-09T03:37:09;12.77;;;3.42;;
21833;SDS011;11079;51.092;3.458;2022-09-09T03:39:35;7.60;;;2.20;;
21833;SDS011;11079;51.092;3.458;2022-09-09T03:42:00;10.07;;;2.75;;
21833;SDS011;11079;51.092;3.458;2022-09-09T03:44:29;11.40;;;3.38;;
21833;SDS011;11079;51.092;3.458;2022-09-09T03:46:55;8.00;;;2.40;;
21833;SDS011;11079;51.092;3.458;2022-09-09T03:49:21;8.27;;;2.38;;
21833;SDS011;11079;51.092;3.458;2022-09-09T03:51:47;5.60;;;2.00;;
21833;SDS011;11079;51.092;3.458;2022-09-09T03:54:14;9.32;;;3.08;;
21833;SDS011;11079;51.092;3.458;2022-09-09T03:56:39;5.82;;;2.22;;
21833;SDS011;11079;51.092;3.458;2022-09-09T03:59:06;7.50;;;2.33;;
21833;SDS011;11079;51.092;3.458;2022-09-09T04:01:35;7.47;;;2.17;;
21833;SDS011;11079;51.092;3.458;2022-09-09T04:04:00;13.77;;;3.95;;
21833;SDS011;11079;51.092;3.458;2022-09-09T04:06:27;8.52;;;2.53;;
21833;SDS011;11079;51.092;3.458;2022-09-09T04:08:55;9.15;;;2.40;;
21833;SDS011;11079;51.092;3.458;2022-09-09T04:11:20;11.38;;;2.97;;
21833;SDS011;11079;51.092;3.458;2022-09-09T04:13:46;10.02;;;2.95;;
21833;SDS011;11079;51.092;3.458;2022-09-09T04:18:42;13.55;;;3.17;;
21833;SDS011;11079;51.092;3.458;2022-09-09T04:21:10;8.93;;;2.97;;
21833;SDS011;11079;51.092;3.458;2022-09-09T04:24:14;15.20;;;2.90;;
21833;SDS011;11079;51.092;3.458;2022-09-09T04:26:41;15.10;;;3.40;;
21833;SDS011;11079;51.092;3.458;2022-09-09T04:29:07;7.15;;;3.15;;
21833;SDS011;11079;51.092;3.458;2022-09-09T04:31:33;9.07;;;2.90;;
21833;SDS011;11079;51.092;3.458;2022-09-09T04:34:00;6.57;;;3.03;;
21833;SDS011;11079;51.092;3.458;2022-09-09T04:36:32;9.52;;;3.10;;
21833;SDS011;11079;51.092;3.458;2022-09-09T04:38:58;12.80;;;2.67;;
21833;SDS011;11079;51.092;3.458;2022-09-09T04:41:23;11.57;;;3.45;;
21833;SDS011;11079;51.092;3.458;2022-09-09T04:43:49;10.35;;;2.80;;
21833;SDS011;11079;51.092;3.458;2022-09-09T04:46:15;15.32;;;3.58;;
21833;SDS011;11079;51.092;3.458;2022-09-09T04:51:24;12.70;;;4.43;;
21833;SDS011;11079;51.092;3.458;2022-09-09T04:53:53;8.82;;;2.90;;
21833;SDS011;11079;51.092;3.458;2022-09-09T04:56:19;12.95;;;2.95;;
21833;SDS011;11079;51.092;3.458;2022-09-09T04:59:00;14.73;;;3.50;;
21833;SDS011;11079;51.092;3.458;2022-09-09T05:01:28;11.27;;;3.28;;
21833;SDS011;11079;51.092;3.458;2022-09-09T05:03:54;10.15;;;3.55;;
21833;SDS011;11079;51.092;3.458;2022-09-09T05:09:02;13.63;;;3.28;;
21833;SDS011;11079;51.092;3.458;2022-09-09T05:11:31;14.80;;;3.33;;
21833;SDS011;11079;51.092;3.458;2022-09-09T05:14:01;15.93;;;3.95;;
21833;SDS011;11079;51.092;3.458;2022-09-09T05:16:27;13.95;;;3.65;;
21833;SDS011;11079;51.092;3.458;2022-09-09T05:18:53;9.82;;;2.97;;
21833;SDS011;11079;51.092;3.458;2022-09-09T05:21:19;11.63;;;3.70;;
21833;SDS011;11079;51.092;3.458;2022-09-09T05:23:49;13.60;;;4.22;;
21833;SDS011;11079;51.092;3.458;2022-09-09T05:26:17;23.80;;;5.10;;
21833;SDS011;11079;51.092;3.458;2022-09-09T05:28:44;15.73;;;4.45;;
21833;SDS011;11079;51.092;3.458;2022-09-09T05:31:10;13.85;;;3.85;;
21833;SDS011;11079;51.092;3.458;2022-09-09T05:33:38;15.75;;;4.65;;
21833;SDS011;11079;51.092;3.458;2022-09-09T05:36:09;15.20;;;3.88;;
21833;SDS011;11079;51.092;3.458;2022-09-09T05:38:38;12.52;;;5.70;;
21833;SDS011;11079;51.092;3.458;2022-09-09T05:41:04;18.77;;;5.32;;
21833;SDS011;11079;51.092;3.458;2022-09-09T05:43:30;18.58;;;4.97;;
21833;SDS011;11079;51.092;3.458;2022-09-09T05:46:04;9.13;;;4.13;;
21833;SDS011;11079;51.092;3.458;2022-09-09T05:48:40;21.38;;;5.25;;
21833;SDS011;11079;51.092;3.458;2022-09-09T05:51:08;16.65;;;5.68;;
21833;SDS011;11079;51.092;3.458;2022-09-09T05:53:40;10.77;;;4.28;;
21833;SDS011;11079;51.092;3.458;2022-09-09T05:56:09;15.35;;;4.85;;
21833;SDS011;11079;51.092;3.458;2022-09-09T05:58:37;16.13;;;4.95;;
21833;SDS011;11079;51.092;3.458;2022-09-09T06:01:08;9.75;;;4.15;;
21833;SDS011;11079;51.092;3.458;2022-09-09T06:03:53;12.35;;;5.15;;
21833;SDS011;11079;51.092;3.458;2022-09-09T06:06:20;16.23;;;5.05;;
21833;SDS011;11079;51.092;3.458;2022-09-09T06:08:51;15.35;;;4.43;;
21833;SDS011;11079;51.092;3.458;2022-09-09T06:11:19;15.38;;;4.57;;
21833;SDS011;11079;51.092;3.458;2022-09-09T06:13:48;18.65;;;5.10;;
21833;SDS011;11079;51.092;3.458;2022-09-09T06:16:17;14.02;;;4.20;;
21833;SDS011;11079;51.092;3.458;2022-09-09T06:18:43;15.88;;;6.13;;
21833;SDS011;11079;51.092;3.458;2022-09-09T06:21:11;14.38;;;4.47;;
21833;SDS011;11079;51.092;3.458;2022-09-09T06:23:40;15.07;;;4.65;;
21833;SDS011;11079;51.092;3.458;2022-09-09T06:26:09;15.38;;;5.20;;
21833;SDS011;11079;51.092;3.458;2022-09-09T06:28:44;17.63;;;5.22;;
21833;SDS011;11079;51.092;3.458;2022-09-09T06:31:11;10.05;;;4.32;;
21833;SDS011;11079;51.092;3.458;2022-09-09T06:33:40;13.82;;;3.55;;
21833;SDS011;11079;51.092;3.458;2022-09-09T06:36:07;9.93;;;3.30;;
21833;SDS011;11079;51.092;3.458;2022-09-09T06:38:39;12.05;;;4.97;;
21833;SDS011;11079;51.092;3.458;2022-09-09T06:41:07;13.18;;;4.47;;
21833;SDS011;11079;51.092;3.458;2022-09-09T06:43:34;13.95;;;4.50;;
21833;SDS011;11079;51.092;3.458;2022-09-09T06:46:01;13.70;;;3.95;;
21833;SDS011;11079;51.092;3.458;2022-09-09T06:48:29;15.10;;;3.95;;
21833;SDS011;11079;51.092;3.458;2022-09-09T06:51:05;12.45;;;3.33;;
21833;SDS011;11079;51.092;3.458;2022-09-09T06:53:39;10.02;;;3.28;;
21833;SDS011;11079;51.092;3.458;2022-09-09T06:58:35;11.95;;;3.67;;
21833;SDS011;11079;51.092;3.458;2022-09-09T07:01:04;13.15;;;3.30;;
21833;SDS011;11079;51.092;3.458;2022-09-09T07:03:31;12.82;;;3.95;;
21833;SDS011;11079;51.092;3.458;2022-09-09T07:05:57;15.13;;;4.82;;
21833;SDS011;11079;51.092;3.458;2022-09-09T07:08:24;12.50;;;3.60;;
21833;SDS011;11079;51.092;3.458;2022-09-09T07:10:50;14.73;;;4.38;;
21833;SDS011;11079;51.092;3.458;2022-09-09T07:13:23;14.75;;;4.93;;
21833;SDS011;11079;51.092;3.458;2022-09-09T07:15:50;12.38;;;4.15;;
21833;SDS011;11079;51.092;3.458;2022-09-09T07:18:17;13.35;;;4.93;;
21833;SDS011;11079;51.092;3.458;2022-09-09T07:20:42;11.32;;;3.25;;
21833;SDS011;11079;51.092;3.458;2022-09-09T07:23:17;12.77;;;4.10;;
21833;SDS011;11079;51.092;3.458;2022-09-09T07:25:46;11.02;;;3.80;;
21833;SDS011;11079;51.092;3.458;2022-09-09T07:28:12;11.85;;;4.00;;
21833;SDS011;11079;51.092;3.458;2022-09-09T07:30:38;13.35;;;4.00;;
21833;SDS011;11079;51.092;3.458;2022-09-09T07:33:05;6.32;;;3.65;;
21833;SDS011;11079;51.092;3.458;2022-09-09T07:35:31;9.73;;;4.05;;
21833;SDS011;11079;51.092;3.458;2022-09-09T07:37:56;13.13;;;4.00;;
21833;SDS011;11079;51.092;3.458;2022-09-09T07:40:23;10.48;;;3.67;;
21833;SDS011;11079;51.092;3.458;2022-09-09T07:42:49;11.38;;;3.45;;
21833;SDS011;11079;51.092;3.458;2022-09-09T07:45:15;12.02;;;3.35;;
21833;SDS011;11079;51.092;3.458;2022-09-09T07:47:41;14.25;;;4.50;;
21833;SDS011;11079;51.092;3.458;2022-09-09T07:50:07;9.23;;;3.03;;
21833;SDS011;11079;51.092;3.458;2022-09-09T07:52:34;9.63;;;3.20;;
21833;SDS011;11079;51.092;3.458;2022-09-09T07:55:00;14.23;;;3.80;;
21833;SDS011;11079;51.092;3.458;2022-09-09T07:57:29;9.13;;;3.90;;
21833;SDS011;11079;51.092;3.458;2022-09-09T07:59:55;12.60;;;3.92;;
21833;SDS011;11079;51.092;3.458;2022-09-09T08:02:22;10.57;;;3.60;;
21833;SDS011;11079;51.092;3.458;2022-09-09T08:04:50;11.13;;;3.60;;
21833;SDS011;11079;51.092;3.458;2022-09-09T08:07:16;8.30;;;3.50;;
21833;SDS011;11079;51.092;3.458;2022-09-09T08:09:42;9.98;;;3.88;;
21833;SDS011;11079;51.092;3.458;2022-09-09T08:12:08;7.07;;;3.08;;
21833;SDS011;11079;51.092;3.458;2022-09-09T08:14:35;8.57;;;3.10;;
21833;SDS011;11079;51.092;3.458;2022-09-09T08:17:01;8.07;;;3.35;;
21833;SDS011;11079;51.092;3.458;2022-09-09T08:19:27;11.02;;;4.30;;
21833;SDS011;11079;51.092;3.458;2022-09-09T08:21:55;12.95;;;4.13;;
21833;SDS011;11079;51.092;3.458;2022-09-09T08:24:20;9.82;;;3.40;;
21833;SDS011;11079;51.092;3.458;2022-09-09T08:26:48;14.93;;;4.10;;
21833;SDS011;11079;51.092;3.458;2022-09-09T08:29:14;9.13;;;3.70;;
21833;SDS011;11079;51.092;3.458;2022-09-09T08:31:42;10.60;;;3.72;;
21833;SDS011;11079;51.092;3.458;2022-09-09T08:34:12;10.20;;;3.55;;
21833;SDS011;11079;51.092;3.458;2022-09-09T08:36:40;8.88;;;3.47;;
21833;SDS011;11079;51.092;3.458;2022-09-09T08:39:08;8.77;;;3.35;;
21833;SDS011;11079;51.092;3.458;2022-09-09T08:52:16;7.47;;;2.40;;
21833;SDS011;11079;51.092;3.458;2022-09-09T08:54:46;3.88;;;2.28;;
21833;SDS011;11079;51.092;3.458;2022-09-09T08:57:18;5.40;;;2.13;;
21833;SDS011;11079;51.092;3.458;2022-09-09T08:59:54;5.15;;;1.85;;
21833;SDS011;11079;51.092;3.458;2022-09-09T09:02:31;6.03;;;2.20;;
21833;SDS011;11079;51.092;3.458;2022-09-09T09:05:06;7.97;;;2.65;;
21833;SDS011;11079;51.092;3.458;2022-09-09T09:07:45;6.22;;;1.83;;
21833;SDS011;11079;51.092;3.458;2022-09-09T09:13:03;6.50;;;2.20;;
21833;SDS011;11079;51.092;3.458;2022-09-09T09:15:36;6.97;;;2.13;;
21833;SDS011;11079;51.092;3.458;2022-09-09T09:18:19;5.57;;;2.00;;
21833;SDS011;11079;51.092;3.458;2022-09-09T09:23:49;3.90;;;2.00;;
21833;SDS011;11079;51.092;3.458;2022-09-09T09:26:22;5.35;;;1.90;;
21833;SDS011;11079;51.092;3.458;2022-09-09T09:29:10;3.65;;;1.83;;
21833;SDS011;11079;51.092;3.458;2022-09-09T09:31:53;5.30;;;1.45;;
21833;SDS011;11079;51.092;3.458;2022-09-09T09:34:26;2.97;;;1.30;;
21833;SDS011;11079;51.092;3.458;2022-09-09T09:36:54;6.57;;;1.95;;
21833;SDS011;11079;51.092;3.458;2022-09-09T09:39:52;4.97;;;2.22;;
21833;SDS011;11079;51.092;3.458;2022-09-09T09:42:18;4.20;;;1.60;;
21833;SDS011;11079;51.092;3.458;2022-09-09T09:44:48;5.65;;;2.05;;
21833;SDS011;11079;51.092;3.458;2022-09-09T09:47:15;5.03;;;2.00;;
21833;SDS011;11079;51.092;3.458;2022-09-09T09:49:58;3.88;;;1.77;;
21833;SDS011;11079;51.092;3.458;2022-09-09T09:52:25;3.63;;;1.80;;
21833;SDS011;11079;51.092;3.458;2022-09-09T09:54:53;4.35;;;1.60;;
21833;SDS011;11079;51.092;3.458;2022-09-09T09:57:25;3.78;;;1.90;;
21833;SDS011;11079;51.092;3.458;2022-09-09T10:02:40;5.80;;;2.08;;
21833;SDS011;11079;51.092;3.458;2022-09-09T10:05:16;5.40;;;2.33;;
21833;SDS011;11079;51.092;3.458;2022-09-09T10:07:43;2.75;;;1.40;;
21833;SDS011;11079;51.092;3.458;2022-09-09T10:10:12;3.63;;;1.65;;
21833;SDS011;11079;51.092;3.458;2022-09-09T10:20:45;5.20;;;1.52;;
21833;SDS011;11079;51.092;3.458;2022-09-09T10:26:19;4.00;;;1.38;;
21833;SDS011;11079;51.092;3.458;2022-09-09T10:34:16;2.60;;;0.80;;
21833;SDS011;11079;51.092;3.458;2022-09-09T10:37:06;4.78;;;1.35;;
21833;SDS011;11079;51.092;3.458;2022-09-09T10:39:47;2.17;;;0.90;;
21833;SDS011;11079;51.092;3.458;2022-09-09T10:42:26;2.10;;;1.30;;
21833;SDS011;11079;51.092;3.458;2022-09-09T10:53:46;5.07;;;1.77;;
21833;SDS011;11079;51.092;3.458;2022-09-09T10:56:28;4.07;;;1.42;;
21833;SDS011;11079;51.092;3.458;2022-09-09T10:58:56;3.38;;;1.25;;
21833;SDS011;11079;51.092;3.458;2022-09-09T11:01:39;2.58;;;1.20;;
21833;SDS011;11079;51.092;3.458;2022-09-09T11:04:17;6.10;;;1.17;;
21833;SDS011;11079;51.092;3.458;2022-09-09T11:07:05;4.47;;;1.35;;
21833;SDS011;11079;51.092;3.458;2022-09-09T11:09:41;3.58;;;1.20;;
21833;SDS011;11079;51.092;3.458;2022-09-09T11:12:18;3.95;;;1.27;;
21833;SDS011;11079;51.092;3.458;2022-09-09T11:14:50;1.73;;;1.08;;
21833;SDS011;11079;51.092;3.458;2022-09-09T11:17:26;2.65;;;1.10;;
21833;SDS011;11079;51.092;3.458;2022-09-09T11:20:22;5.70;;;1.30;;
21833;SDS011;11079;51.092;3.458;2022-09-09T11:25:51;5.03;;;1.55;;
21833;SDS011;11079;51.092;3.458;2022-09-09T11:42:21;2.85;;;0.90;;
21833;SDS011;11079;51.092;3.458;2022-09-09T11:44:50;5.32;;;1.10;;
21833;SDS011;11079;51.092;3.458;2022-09-09T11:47:19;2.95;;;1.10;;
21833;SDS011;11079;51.092;3.458;2022-09-09T11:50:09;3.45;;;0.90;;
21833;SDS011;11079;51.092;3.458;2022-09-09T11:58:39;1.30;;;0.90;;
21833;SDS011;11079;51.092;3.458;2022-09-09T12:01:26;4.18;;;0.93;;
21833;SDS011;11079;51.092;3.458;2022-09-09T12:06:49;4.28;;;1.00;;
21833;SDS011;11079;51.092;3.458;2022-09-09T12:19:39;5.22;;;1.17;;
21833;SDS011;11079;51.092;3.458;2022-09-09T12:24:34;6.68;;;2.00;;
21833;SDS011;11079;51.092;3.458;2022-09-09T12:30:07;3.90;;;1.42;;
21833;SDS011;11079;51.092;3.458;2022-09-09T12:32:36;4.22;;;1.70;;
21833;SDS011;11079;51.092;3.458;2022-09-09T12:35:03;5.35;;;1.55;;
21833;SDS011;11079;51.092;3.458;2022-09-09T12:40:18;2.85;;;1.30;;
21833;SDS011;11079;51.092;3.458;2022-09-09T12:42:47;6.55;;;1.63;;
21833;SDS011;11079;51.092;3.458;2022-09-09T12:45:17;6.30;;;1.65;;
21833;SDS011;11079;51.092;3.458;2022-09-09T12:47:45;2.08;;;0.90;;
21833;SDS011;11079;51.092;3.458;2022-09-09T12:50:22;4.15;;;1.08;;
21833;SDS011;11079;51.092;3.458;2022-09-09T12:52:53;2.33;;;1.17;;
21833;SDS011;11079;51.092;3.458;2022-09-09T12:55:23;3.88;;;1.27;;
21833;SDS011;11079;51.092;3.458;2022-09-09T12:58:01;9.68;;;1.58;;
21833;SDS011;11079;51.092;3.458;2022-09-09T13:00:32;4.32;;;1.55;;
21833;SDS011;11079;51.092;3.458;2022-09-09T13:03:00;2.50;;;1.20;;
21833;SDS011;11079;51.092;3.458;2022-09-09T13:05:33;3.50;;;1.30;;
21833;SDS011;11079;51.092;3.458;2022-09-09T13:08:05;3.22;;;1.50;;
21833;SDS011;11079;51.092;3.458;2022-09-09T13:10:42;5.53;;;1.58;;
21833;SDS011;11079;51.092;3.458;2022-09-09T13:13:30;4.57;;;1.55;;
21833;SDS011;11079;51.092;3.458;2022-09-09T13:16:04;5.43;;;1.67;;
21833;SDS011;11079;51.092;3.458;2022-09-09T13:18:34;3.92;;;1.20;;
21833;SDS011;11079;51.092;3.458;2022-09-09T13:21:03;3.00;;;1.52;;
21833;SDS011;11079;51.092;3.458;2022-09-09T13:23:30;4.35;;;1.42;;
21833;SDS011;11079;51.092;3.458;2022-09-09T13:26:21;5.68;;;1.70;;
21833;SDS011;11079;51.092;3.458;2022-09-09T13:28:51;5.43;;;2.00;;
21833;SDS011;11079;51.092;3.458;2022-09-09T13:31:28;6.15;;;1.63;;
21833;SDS011;11079;51.092;3.458;2022-09-09T13:36:53;7.43;;;2.50;;
21833;SDS011;11079;51.092;3.458;2022-09-09T13:39:23;8.10;;;2.65;;
21833;SDS011;11079;51.092;3.458;2022-09-09T13:41:49;4.75;;;2.15;;
21833;SDS011;11079;51.092;3.458;2022-09-09T13:44:17;4.53;;;1.90;;
21833;SDS011;11079;51.092;3.458;2022-09-09T13:49:29;5.55;;;2.10;;
21833;SDS011;11079;51.092;3.458;2022-09-09T13:54:32;3.85;;;1.88;;
21833;SDS011;11079;51.092;3.458;2022-09-09T13:56:58;4.90;;;1.80;;
21833;SDS011;11079;51.092;3.458;2022-09-09T13:59:24;3.13;;;1.73;;
21833;SDS011;11079;51.092;3.458;2022-09-09T14:01:52;2.28;;;1.20;;
21833;SDS011;11079;51.092;3.458;2022-09-09T14:04:18;6.15;;;2.22;;
21833;SDS011;11079;51.092;3.458;2022-09-09T14:06:46;4.90;;;1.40;;
21833;SDS011;11079;51.092;3.458;2022-09-09T14:09:13;3.42;;;1.70;;
21833;SDS011;11079;51.092;3.458;2022-09-09T14:11:41;4.03;;;1.83;;
21833;SDS011;11079;51.092;3.458;2022-09-09T14:14:07;3.95;;;1.52;;
21833;SDS011;11079;51.092;3.458;2022-09-09T14:16:33;5.05;;;1.80;;
21833;SDS011;11079;51.092;3.458;2022-09-09T14:19:00;4.63;;;1.88;;
21833;SDS011;11079;51.092;3.458;2022-09-09T14:21:27;6.03;;;1.70;;
21833;SDS011;11079;51.092;3.458;2022-09-09T14:23:52;5.85;;;1.90;;
21833;SDS011;11079;51.092;3.458;2022-09-09T14:26:19;5.82;;;2.25;;
21833;SDS011;11079;51.092;3.458;2022-09-09T14:28:46;4.80;;;2.05;;
21833;SDS011;11079;51.092;3.458;2022-09-09T14:31:12;3.53;;;2.28;;
21833;SDS011;11079;51.092;3.458;2022-09-09T14:33:42;6.03;;;3.53;;
21833;SDS011;11079;51.092;3.458;2022-09-09T14:36:09;4.80;;;3.55;;
21833;SDS011;11079;51.092;3.458;2022-09-09T14:38:35;5.45;;;3.10;;
21833;SDS011;11079;51.092;3.458;2022-09-09T14:41:06;8.82;;;3.63;;
21833;SDS011;11079;51.092;3.458;2022-09-09T14:43:37;8.23;;;3.40;;
21833;SDS011;11079;51.092;3.458;2022-09-09T14:48:36;7.57;;;3.72;;
21833;SDS011;11079;51.092;3.458;2022-09-09T14:51:04;5.55;;;2.85;;
21833;SDS011;11079;51.092;3.458;2022-09-09T14:53:31;4.93;;;2.70;;
21833;SDS011;11079;51.092;3.458;2022-09-09T14:56:07;9.52;;;2.75;;
21833;SDS011;11079;51.092;3.458;2022-09-09T14:58:34;4.97;;;2.90;;
21833;SDS011;11079;51.092;3.458;2022-09-09T15:01:03;5.25;;;2.92;;
21833;SDS011;11079;51.092;3.458;2022-09-09T15:03:37;4.72;;;2.95;;
21833;SDS011;11079;51.092;3.458;2022-09-09T15:06:05;5.15;;;3.00;;
21833;SDS011;11079;51.092;3.458;2022-09-09T15:08:35;4.47;;;2.58;;
21833;SDS011;11079;51.092;3.458;2022-09-09T15:11:03;4.80;;;3.00;;
21833;SDS011;11079;51.092;3.458;2022-09-09T15:13:29;5.68;;;2.70;;
21833;SDS011;11079;51.092;3.458;2022-09-09T15:15:55;6.40;;;2.78;;
21833;SDS011;11079;51.092;3.458;2022-09-09T15:18:28;20.38;;;3.70;;
21833;SDS011;11079;51.092;3.458;2022-09-09T15:20:54;6.85;;;2.88;;
21833;SDS011;11079;51.092;3.458;2022-09-09T15:23:19;4.13;;;2.38;;
21833;SDS011;11079;51.092;3.458;2022-09-09T15:25:54;3.67;;;2.40;;
21833;SDS011;11079;51.092;3.458;2022-09-09T15:28:21;4.65;;;2.45;;
21833;SDS011;11079;51.092;3.458;2022-09-09T15:30:51;4.68;;;1.98;;
21833;SDS011;11079;51.092;3.458;2022-09-09T15:33:18;2.65;;;1.70;;
21833;SDS011;11079;51.092;3.458;2022-09-09T15:35:45;6.97;;;1.95;;
21833;SDS011;11079;51.092;3.458;2022-09-09T15:38:10;5.65;;;1.45;;
21833;SDS011;11079;51.092;3.458;2022-09-09T15:40:38;4.50;;;1.73;;
21833;SDS011;11079;51.092;3.458;2022-09-09T15:43:05;3.00;;;1.63;;
21833;SDS011;11079;51.092;3.458;2022-09-09T15:45:32;8.02;;;2.30;;
21833;SDS011;11079;51.092;3.458;2022-09-09T15:47:59;2.97;;;1.92;;
21833;SDS011;11079;51.092;3.458;2022-09-09T15:50:29;5.78;;;2.50;;
21833;SDS011;11079;51.092;3.458;2022-09-09T15:52:58;6.72;;;2.35;;
21833;SDS011;11079;51.092;3.458;2022-09-09T15:55:24;5.45;;;2.08;;
21833;SDS011;11079;51.092;3.458;2022-09-09T15:57:50;4.78;;;2.20;;
21833;SDS011;11079;51.092;3.458;2022-09-09T16:00:20;4.43;;;2.20;;
21833;SDS011;11079;51.092;3.458;2022-09-09T16:02:47;8.45;;;2.95;;
21833;SDS011;11079;51.092;3.458;2022-09-09T16:05:13;3.83;;;2.67;;
21833;SDS011;11079;51.092;3.458;2022-09-09T16:07:39;7.85;;;2.70;;
21833;SDS011;11079;51.092;3.458;2022-09-09T16:10:07;4.72;;;2.30;;
21833;SDS011;11079;51.092;3.458;2022-09-09T16:12:33;5.05;;;2.33;;
21833;SDS011;11079;51.092;3.458;2022-09-09T16:14:59;6.00;;;2.53;;
21833;SDS011;11079;51.092;3.458;2022-09-09T16:17:24;5.05;;;2.40;;
21833;SDS011;11079;51.092;3.458;2022-09-09T16:19:50;7.13;;;2.85;;
21833;SDS011;11079;51.092;3.458;2022-09-09T16:22:15;5.55;;;2.80;;
21833;SDS011;11079;51.092;3.458;2022-09-09T16:24:43;9.10;;;3.10;;
21833;SDS011;11079;51.092;3.458;2022-09-09T16:27:09;6.38;;;2.88;;
21833;SDS011;11079;51.092;3.458;2022-09-09T16:29:36;6.78;;;2.72;;
21833;SDS011;11079;51.092;3.458;2022-09-09T16:32:01;8.20;;;2.50;;
21833;SDS011;11079;51.092;3.458;2022-09-09T16:34:27;5.90;;;2.85;;
21833;SDS011;11079;51.092;3.458;2022-09-09T16:36:53;6.75;;;2.78;;
21833;SDS011;11079;51.092;3.458;2022-09-09T16:39:19;6.13;;;2.63;;
21833;SDS011;11079;51.092;3.458;2022-09-09T16:41:47;5.45;;;2.80;;
21833;SDS011;11079;51.092;3.458;2022-09-09T16:44:13;4.30;;;2.40;;
21833;SDS011;11079;51.092;3.458;2022-09-09T16:46:42;5.70;;;2.00;;
21833;SDS011;11079;51.092;3.458;2022-09-09T16:49:10;3.45;;;2.03;;
21833;SDS011;11079;51.092;3.458;2022-09-09T16:51:42;4.88;;;2.33;;
21833;SDS011;11079;51.092;3.458;2022-09-09T16:54:10;6.00;;;2.08;;
21833;SDS011;11079;51.092;3.458;2022-09-09T16:56:37;7.57;;;1.98;;
21833;SDS011;11079;51.092;3.458;2022-09-09T16:59:06;5.35;;;2.08;;
21833;SDS011;11079;51.092;3.458;2022-09-09T17:01:35;11.90;;;2.05;;
21833;SDS011;11079;51.092;3.458;2022-09-09T17:04:10;4.07;;;2.25;;
21833;SDS011;11079;51.092;3.458;2022-09-09T17:07:17;6.32;;;2.40;;
21833;SDS011;11079;51.092;3.458;2022-09-09T17:09:44;3.35;;;2.28;;
21833;SDS011;11079;51.092;3.458;2022-09-09T17:12:10;5.65;;;2.67;;
21833;SDS011;11079;51.092;3.458;2022-09-09T17:14:54;6.85;;;2.22;;
21833;SDS011;11079;51.092;3.458;2022-09-09T17:17:20;4.57;;;2.58;;
21833;SDS011;11079;51.092;3.458;2022-09-09T17:19:46;8.85;;;2.92;;
21833;SDS011;11079;51.092;3.458;2022-09-09T17:22:12;4.40;;;2.10;;
21833;SDS011;11079;51.092;3.458;2022-09-09T17:24:37;6.63;;;2.05;;
21833;SDS011;11079;51.092;3.458;2022-09-09T17:27:04;6.90;;;1.73;;
21833;SDS011;11079;51.092;3.458;2022-09-09T17:29:29;5.50;;;1.60;;
21833;SDS011;11079;51.092;3.458;2022-09-09T17:31:55;9.55;;;2.88;;
21833;SDS011;11079;51.092;3.458;2022-09-09T17:34:34;5.68;;;1.77;;
21833;SDS011;11079;51.092;3.458;2022-09-09T17:37:01;5.25;;;1.50;;
21833;SDS011;11079;51.092;3.458;2022-09-09T17:39:27;5.13;;;1.63;;
21833;SDS011;11079;51.092;3.458;2022-09-09T17:42:16;4.85;;;1.85;;
21833;SDS011;11079;51.092;3.458;2022-09-09T17:44:41;5.70;;;1.80;;
21833;SDS011;11079;51.092;3.458;2022-09-09T17:47:07;8.43;;;2.28;;
21833;SDS011;11079;51.092;3.458;2022-09-09T17:49:33;9.32;;;1.90;;
21833;SDS011;11079;51.092;3.458;2022-09-09T17:51:58;5.75;;;1.70;;
21833;SDS011;11079;51.092;3.458;2022-09-09T17:54:24;8.77;;;1.77;;
21833;SDS011;11079;51.092;3.458;2022-09-09T17:56:53;6.28;;;1.90;;